Список аэропортов
Фактическая погода:

21 апреля, 19:30
Температура: +3°C (-0.6*)
Ветер: западный 4 м/с
Давление: *766 мм
Без существ. явл.
Время (МСК)Темп. СВетерВлажностьДавлениеОблачностьОсадки
15:00+10ЮЗ, 3 м/с42%1023 гПаясно
16:00+10ЮЗ, 3 м/с44%1023 гПаясно
17:00+9ЮЗ, 2 м/с49%1023 гПаоблачно
18:00+7ЮЗ, 1 м/с59%1023 гПаоблачно
19:00+5Ю, 1 м/с70%1023 гПас прояснениями
20:00+3Ю, 2 м/с79%1023 гПамалооблачно
21:00+2Ю, 2 м/с84%1023 гПаясно
22:00+1ЮЗ, 2 м/с87%1023 гПаясно
23:00+1ЮЗ, 2 м/с90%1023 гПаясно
22 апреля
00:00-0ЮЗ, 1 м/с95%1023 гПас прояснениями
01:00-1ЮЗ, 2 м/с96%1023 гПаоблачно
02:00-1ЮЗ, 2 м/с96%1023 гПаоблачно
03:00-2Ю, 2 м/с96%1023 гПас прояснениями
04:00-2Ю, 1 м/с96%1023 гПас прояснениями
05:00-1Ю, 2 м/с95%1023 гПамалооблачно
06:00+1ЮЗ, 2 м/с86%1023 гПас прояснениями
07:00+4ЮЗ, 2 м/с71%1023 гПамалооблачно
08:00+7ЮЗ, 2 м/с62%1022 гПаоблачно
09:00+9ЮЗ, 2 м/с56%1022 гПаоблачно
10:00+11ЮЗ, 3 м/с50%1021 гПас прояснениями
11:00+12ЮЗ, 3 м/с46%1021 гПаоблачно
12:00+12ЮЗ, 3 м/с45%1020 гПамалооблачно
13:00+12ЮЗ, 3 м/с46%1019 гПаоблачно
14:00+12ЮЗ, 3 м/с47%1019 гПаоблачно
15:00+12ЮЗ, 3 м/с46%1018 гПаоблачно
16:00+12ЮЗ, 3 м/с50%1017 гПаоблачно
17:00+10ЮЗ, 2 м/с56%1017 гПаоблачно
18:00+9ЮЗ, 3 м/с62%1017 гПаоблачно
19:00+7Ю, 2 м/с66%1017 гПаоблачно
20:00+6Ю, 3 м/с70%1017 гПас прояснениями
21:00+5Ю, 3 м/с72%1017 гПаоблачно
22:00+4Ю, 3 м/с74%1016 гПаоблачно
23:00+3Ю, 3 м/с79%1016 гПаоблачно
23 апреля
00:00+3ЮЗ, 3 м/с83%1015 гПаоблачно
01:00+2ЮЗ, 2 м/с88%1015 гПаоблачно
02:00+1ЮЗ, 2 м/с92%1015 гПаоблачно
03:00+1ЮЗ, 2 м/с96%1014 гПаоблачно
04:00+1ЮЗ, 2 м/с96%1014 гПаоблачно
05:00+1ЮЗ, 2 м/с95%1014 гПаоблачносл. дождь
06:00+2ЮЗ, 2 м/с96%1014 гПаоблачносл. дождь
07:00+3ЮЗ, 2 м/с97%1014 гПаоблачнодождь
08:00+3З, 2 м/с98%1014 гПаоблачносл. дождь
09:00+3З, 2 м/с98%1014 гПаоблачно
10:00+4З, 2 м/с97%1014 гПаоблачно
11:00+4З, 2 м/с95%1014 гПаоблачно
12:00+5З, 2 м/с92%1014 гПаоблачно
13:00+5З, 2 м/с89%1014 гПаоблачно
14:00+5З, 2 м/с86%1014 гПаоблачно
15:00+5З, 2 м/с82%1014 гПаоблачно